Share

Jewell, KS

3:02 AM CDT on April 25, 2014 (GMT -0500)
2 S of Pawnee (KKSCOURT2) Elev 1565 ft | 39.89 °N, 97.85 °W | Change Station

Current weather conditions updated 1 second ago

Clear
Clear
41.9 °F
Feels Like 42 °F
N
1.1
Wind Variable Wind from SSW
Gusts 2.5 mph
Sunrise 6:40 AM
Sunset 8:20 PM
Moon Waning Crescent

Today is forecast to be Much Warmer than yesterday.

Pressure 29.83 in
Visibility 10.0 miles
Clouds Clear
Windchill 42 °F
Dew Point 36 °F
Humidity 80%
Rainfall 0.00 in
Snow Depth Not available.
UV 0 out of 16
Pollen 8.80 out of 12
Air Quality Not available.
Flu Activity No Activity
METAR KCNK 250755Z AUTO 21012KT 10SM CLR 12/M01 A2985 RMK AO2 SLP101 T01221011

More Conditions Fewer Conditions

Pressure 29.83 in
Visibility 10.0 miles
Clouds Clear
Windchill 42 °F
Dew Point 36 °F
Humidity 80%
Rainfall 0.00 in
Snow Depth Not available.
UV 0 out of 16
Pollen 8.80 out of 12
Air Quality Not available.
Flu Activity No Activity
METAR KCNK 250755Z AUTO 21012KT 10SM CLR 12/M01 A2985 RMK AO2 SLP101 T01221011

More Conditions Fewer Conditions

10-Day Weather Forecast

Almanac

Astronomy

Apr. 25, 2014 Rise Set
Actual Time 6:40 AM CDT 8:20 PM CDT
Civil Twilight 6:12 AM CDT 8:49 PM CDT
Nautical Twilight 5:37 AM CDT 9:24 PM CDT
Astronomical Twilight 5:00 AM CDT 10:01 PM CDT
Moon 4:29 AM CDT 4:45 PM CDT
Length of Visible Light 14h 37m
Length of Day
13h 39m
Tomorrow will be 2m 20s longer.
Waning Crescent, 18% of the Moon is Illuminated
Today
Waning Crescent
Apr 29
New
May 6
First Quarter
May 14
Full
May 21
Last Quarter

Today's Extremes

State Highs State Lows

Community

  • Deer in evening light
    Deer in evening light
  • Critter
    Critter
  • Jone Runs Falls
    Jone Runs Falls
  • Easter in Shenandoah National Park
    Easter in Shenandoah National Park
  • Sunset at Apalachicola Bay, Florida
    Sunset at Apalachicola Bay, Florida

WunderPhotos

Upload Photos

1,704,873 photos uploaded!

WunderBlogs® & News

Nearby

Snow Depth

Station Depth Elevation
No new snow has been reported.

Coastal Water Temperatures

Place Temperature
No Stations Reporting

Earthquake Activity

City Distance Mag. Time & Date
No recent earthquake activity has been reported nearby.
Minimum magnitude displayed is 2.5.

Nearby Weather Stations

Station Location Temp. Windchill Dew Point Humidity Wind Precip. Elev Updated Type
2 S of Pawnee, Courtland, KS 41.9 °F 42 °F 36 °F 80% SSW  at  1.1 mph 0.00 in / hr 1565 ft 3:02 AM CDT Rapid Fire
Simpson KS, Beloit, KS 42.1 °F 41 °F 39 °F 89% West  at  3.2 mph - / hr 1342 ft 2:47 AM CDT Normal
Center Township, BELOIT, KS 45.4 °F 44 °F 35 °F 66% SSE  at  4.0 mph 0.00 in / hr 1504 ft 3:02 AM CDT Normal
North Superior, Superior, NE 52.5 °F - 33 °F 47% NW  at  0.0 mph 0.00 in / hr 1617 ft 11:02 PM CDT Rapid Fire

Show More Stations Show Fewer Stations

What do you think?

We're not finished. Please let us know what you like, what you don't like, and what you are still missing.